createdAt,value
2018-12-27T00:00:15.845Z,99.99
2018-12-27T00:01:15.860Z,99.99
2018-12-27T00:02:15.881Z,99.99
2018-12-27T00:03:15.903Z,99.99
2018-12-27T00:04:15.926Z,99.99
2018-12-27T00:05:15.947Z,99.99
2018-12-27T00:06:15.972Z,99.99
2018-12-27T00:07:15.994Z,99.99
2018-12-27T00:08:16.017Z,99.99
2018-12-27T00:09:16.036Z,99.99
2018-12-27T00:10:16.064Z,99.99
2018-12-27T00:11:16.086Z,99.99
2018-12-27T00:12:16.106Z,99.99
2018-12-27T00:13:16.127Z,99.99
2018-12-27T00:14:16.153Z,99.99
2018-12-27T00:15:16.170Z,99.99
2018-12-27T00:16:16.192Z,99.99
2018-12-27T00:17:16.216Z,99.99
2018-12-27T00:18:16.238Z,99.99
2018-12-27T00:19:16.259Z,99.99
2018-12-27T00:20:16.283Z,99.99
2018-12-27T00:21:16.305Z,99.99
2018-12-27T00:22:16.327Z,99.99
2018-12-27T00:23:16.350Z,99.99
2018-12-27T00:24:16.371Z,99.99
2018-12-27T00:25:16.393Z,99.99
2018-12-27T00:26:16.423Z,99.99
2018-12-27T00:27:16.444Z,99.99
2018-12-27T00:28:16.462Z,99.99
2018-12-27T00:29:16.479Z,99.99
2018-12-27T00:30:16.505Z,99.99
2018-12-27T00:31:16.529Z,99.99
2018-12-27T00:32:16.550Z,99.99
2018-12-27T00:33:16.574Z,99.99
2018-12-27T00:34:16.593Z,99.99
2018-12-27T00:35:16.613Z,99.99
2018-12-27T00:36:16.635Z,99.99
2018-12-27T00:37:16.660Z,99.99
2018-12-27T00:38:16.682Z,99.99
2018-12-27T00:39:16.761Z,99.99
2018-12-27T00:40:16.727Z,99.99
2018-12-27T00:41:16.746Z,99.99
2018-12-27T00:42:16.774Z,99.99
2018-12-27T00:43:16.791Z,99.99
2018-12-27T00:44:16.815Z,99.99
2018-12-27T00:45:16.834Z,99.99
2018-12-27T00:46:16.858Z,99.99
2018-12-27T00:47:16.878Z,99.99
2018-12-27T00:48:16.909Z,99.99
2018-12-27T00:49:16.927Z,99.99
2018-12-27T00:50:16.954Z,99.99
2018-12-27T00:51:16.971Z,99.99
2018-12-27T00:52:16.992Z,99.99
2018-12-27T00:53:17.013Z,99.99
2018-12-27T00:54:17.047Z,99.99
2018-12-27T00:55:17.059Z,99.99
2018-12-27T00:56:17.082Z,99.99
2018-12-27T00:57:17.103Z,99.99
2018-12-27T00:58:17.126Z,99.99
2018-12-27T00:59:17.145Z,99.99
2018-12-27T01:00:17.169Z,99.99
2018-12-27T01:01:17.192Z,99.99
2018-12-27T01:02:17.212Z,99.99
2018-12-27T01:03:17.237Z,99.99
2018-12-27T01:04:17.260Z,99.99
2018-12-27T01:05:17.285Z,99.99
2018-12-27T01:06:17.303Z,99.99
2018-12-27T01:07:17.323Z,99.99
2018-12-27T01:08:17.348Z,99.99
2018-12-27T01:09:17.367Z,99.99
2018-12-27T01:10:17.396Z,99.99
2018-12-27T01:11:17.414Z,99.99
2018-12-27T01:12:17.436Z,99.99
2018-12-27T01:13:17.454Z,99.99
2018-12-27T01:14:17.479Z,99.99
2018-12-27T01:15:17.509Z,99.99
2018-12-27T01:16:17.524Z,99.99
2018-12-27T01:17:17.545Z,99.99
2018-12-27T01:18:17.565Z,99.99
2018-12-27T01:19:17.590Z,99.99
2018-12-27T01:20:17.610Z,99.99
2018-12-27T01:21:17.632Z,99.99
2018-12-27T01:22:17.656Z,99.99
2018-12-27T01:23:17.678Z,99.99
2018-12-27T01:24:17.700Z,99.99
2018-12-27T01:25:17.722Z,99.99
2018-12-27T01:26:17.740Z,99.99
2018-12-27T01:27:17.763Z,99.99
2018-12-27T01:28:17.789Z,99.99
2018-12-27T01:29:17.809Z,99.99
2018-12-27T01:30:17.833Z,99.99
2018-12-27T01:31:17.867Z,99.99
2018-12-27T01:32:17.876Z,99.99
2018-12-27T01:33:18.851Z,99.99
2018-12-27T01:34:17.919Z,99.99
2018-12-27T01:35:17.944Z,99.99
2018-12-27T01:36:17.963Z,99.99
2018-12-27T01:37:17.987Z,99.99
2018-12-27T01:38:18.004Z,99.99
2018-12-27T01:39:18.026Z,99.99
2018-12-27T01:40:18.052Z,99.99
2018-12-27T01:41:18.073Z,99.99
2018-12-27T01:42:18.098Z,99.99
2018-12-27T01:43:18.117Z,99.99
2018-12-27T01:44:18.139Z,99.99
2018-12-27T01:45:18.157Z,99.99
2018-12-27T01:46:18.202Z,99.99
2018-12-27T01:47:18.207Z,99.99
2018-12-27T01:48:18.229Z,99.99
2018-12-27T01:49:18.245Z,99.99
2018-12-27T01:50:18.271Z,99.99
2018-12-27T01:51:18.293Z,99.99
2018-12-27T01:52:18.313Z,99.99
2018-12-27T01:53:18.333Z,99.99
2018-12-27T01:54:18.358Z,99.99
2018-12-27T01:55:18.378Z,99.99
2018-12-27T01:56:18.401Z,99.99
2018-12-27T01:57:18.424Z,99.99
2018-12-27T01:58:18.450Z,99.99
2018-12-27T01:59:18.470Z,99.99
2018-12-27T02:00:18.491Z,99.99
2018-12-27T02:01:18.513Z,99.99
2018-12-27T02:02:18.531Z,99.99
2018-12-27T02:03:18.558Z,99.99
2018-12-27T02:04:18.583Z,99.99
2018-12-27T02:05:18.600Z,99.99
2018-12-27T02:06:18.622Z,99.99
2018-12-27T02:07:18.642Z,99.99
2018-12-27T02:08:18.667Z,99.99
2018-12-27T02:09:18.685Z,99.99
2018-12-27T02:10:18.716Z,99.99
2018-12-27T02:11:18.733Z,99.99
2018-12-27T02:12:18.755Z,99.99
2018-12-27T02:13:18.774Z,99.99
2018-12-27T02:14:18.799Z,99.99
2018-12-27T02:15:18.821Z,99.99
2018-12-27T02:16:18.843Z,99.99
2018-12-27T02:17:18.864Z,99.99
2018-12-27T02:18:18.883Z,99.99
2018-12-27T02:19:18.910Z,99.99
2018-12-27T02:20:18.936Z,99.99
2018-12-27T02:21:18.950Z,99.99
2018-12-27T02:22:18.971Z,99.99
2018-12-27T02:23:18.996Z,99.99
2018-12-27T02:24:19.018Z,99.99
2018-12-27T02:25:19.040Z,99.99
2018-12-27T02:26:19.067Z,99.99
2018-12-27T02:27:19.082Z,99.99
2018-12-27T02:28:19.106Z,99.99
2018-12-27T02:29:19.126Z,99.99
2018-12-27T02:30:19.152Z,99.99
2018-12-27T02:31:19.172Z,99.99
2018-12-27T02:32:19.193Z,99.99
2018-12-27T02:33:19.216Z,99.99
2018-12-27T02:34:19.242Z,99.99
2018-12-27T02:35:19.264Z,99.99
2018-12-27T02:36:19.288Z,99.99
2018-12-27T02:37:19.302Z,99.99
2018-12-27T02:38:19.326Z,99.99
2018-12-27T02:39:19.439Z,99.99
2018-12-27T02:40:19.372Z,99.99
2018-12-27T02:41:19.391Z,99.99
2018-12-27T02:42:19.420Z,99.99
2018-12-27T02:43:19.436Z,99.99
2018-12-27T02:44:19.458Z,99.99
2018-12-27T02:45:19.482Z,99.99
2018-12-27T02:46:19.500Z,99.99
2018-12-27T02:47:19.521Z,99.99
2018-12-27T02:48:19.544Z,99.99
2018-12-27T02:49:19.567Z,99.99
2018-12-27T02:50:19.587Z,99.99
2018-12-27T02:51:19.611Z,99.99
2018-12-27T02:52:19.633Z,99.99
2018-12-27T02:53:19.656Z,99.99
2018-12-27T02:54:19.677Z,99.99
2018-12-27T02:55:19.699Z,99.99
2018-12-27T02:56:19.720Z,99.99
2018-12-27T02:57:19.751Z,99.99
2018-12-27T02:58:19.766Z,99.99
2018-12-27T02:59:19.792Z,99.99
2018-12-27T03:00:19.805Z,99.99
2018-12-27T03:01:19.830Z,99.99
2018-12-27T03:02:19.852Z,99.99
2018-12-27T03:03:19.886Z,99.99
2018-12-27T03:04:19.897Z,99.99
2018-12-27T03:05:19.918Z,99.99
2018-12-27T03:06:19.939Z,99.99
2018-12-27T03:07:19.963Z,99.99
2018-12-27T03:08:19.985Z,99.99
2018-12-27T03:09:20.006Z,99.99
2018-12-27T03:10:20.038Z,99.99
2018-12-27T03:11:20.050Z,99.99
2018-12-27T03:12:20.072Z,99.99
2018-12-27T03:13:20.094Z,99.99
2018-12-27T03:14:20.121Z,99.99
2018-12-27T03:15:20.135Z,99.99
2018-12-27T03:16:20.159Z,99.99
2018-12-27T03:17:20.183Z,99.99
2018-12-27T03:18:20.204Z,99.99
2018-12-27T03:19:20.224Z,99.99
2018-12-27T03:20:20.248Z,99.99
2018-12-27T03:21:20.269Z,99.99
2018-12-27T03:22:20.288Z,99.99
2018-12-27T03:23:20.311Z,99.99
2018-12-27T03:24:20.335Z,99.99
2018-12-27T03:25:20.355Z,99.99
2018-12-27T03:26:20.376Z,99.99
2018-12-27T03:27:20.400Z,99.99
2018-12-27T03:28:20.423Z,99.99
2018-12-27T03:29:20.440Z,99.99
2018-12-27T03:30:20.468Z,99.99
2018-12-27T03:31:20.486Z,99.99
2018-12-27T03:32:20.519Z,99.99
2018-12-27T03:33:20.531Z,99.99
2018-12-27T03:34:20.551Z,99.99
2018-12-27T03:35:20.575Z,99.99
2018-12-27T03:36:20.600Z,99.99
2018-12-27T03:37:20.616Z,99.99
2018-12-27T03:38:20.783Z,99.99
2018-12-27T03:39:20.660Z,99.99
2018-12-27T03:40:20.687Z,99.99
2018-12-27T03:41:20.709Z,99.99
2018-12-27T03:42:20.729Z,99.99
2018-12-27T03:43:20.748Z,99.99
2018-12-27T03:44:20.771Z,99.99
2018-12-27T03:45:20.808Z,99.99
2018-12-27T03:46:20.813Z,99.99
2018-12-27T03:47:20.841Z,99.99
2018-12-27T03:48:20.861Z,99.99
2018-12-27T03:49:20.881Z,99.99
2018-12-27T03:50:20.899Z,99.99
2018-12-27T03:51:20.921Z,99.99
2018-12-27T03:52:20.946Z,99.99
2018-12-27T03:53:20.967Z,99.99
2018-12-27T03:54:20.987Z,99.99
2018-12-27T03:55:21.014Z,99.99
2018-12-27T03:56:21.031Z,99.99
2018-12-27T03:57:21.052Z,99.99
2018-12-27T03:58:21.075Z,99.99
2018-12-27T03:59:21.102Z,99.99
2018-12-27T04:00:21.121Z,99.99
2018-12-27T04:01:21.138Z,99.99
2018-12-27T04:02:21.164Z,99.99
2018-12-27T04:03:21.184Z,99.99
2018-12-27T04:04:21.204Z,99.99
2018-12-27T04:05:21.228Z,99.99
2018-12-27T04:06:21.248Z,99.99
2018-12-27T04:07:21.276Z,99.99
2018-12-27T04:08:21.291Z,99.99
2018-12-27T04:09:21.321Z,99.99
2018-12-27T04:10:21.333Z,99.99
2018-12-27T04:11:21.360Z,99.99
2018-12-27T04:12:21.380Z,99.99
2018-12-27T04:13:21.405Z,99.99
2018-12-27T04:14:21.431Z,99.99
2018-12-27T04:15:21.445Z,99.99
2018-12-27T04:16:21.466Z,99.99
2018-12-27T04:17:21.487Z,99.99
2018-12-27T04:18:21.511Z,99.99
2018-12-27T04:19:21.530Z,99.99
2018-12-27T04:20:21.553Z,99.99
2018-12-27T04:21:21.573Z,99.99
2018-12-27T04:22:21.599Z,99.99
2018-12-27T04:23:21.614Z,99.99
2018-12-27T04:24:21.638Z,99.99
2018-12-27T04:25:21.665Z,99.99
2018-12-27T04:26:21.679Z,99.99
2018-12-27T04:27:21.700Z,99.99
2018-12-27T04:28:21.724Z,99.99
2018-12-27T04:29:21.743Z,99.99
2018-12-27T04:30:21.772Z,99.99
2018-12-27T04:31:21.787Z,99.99
2018-12-27T04:32:21.809Z,99.99
2018-12-27T04:33:21.829Z,99.99
2018-12-27T04:34:21.854Z,99.99
2018-12-27T04:35:21.873Z,99.99
2018-12-27T04:36:21.898Z,99.99
2018-12-27T04:37:21.926Z,99.99
2018-12-27T04:38:21.940Z,99.99
2018-12-27T04:39:21.970Z,99.99
2018-12-27T04:40:21.981Z,99.99
2018-12-27T04:41:22.004Z,99.99
2018-12-27T04:42:22.025Z,99.99
2018-12-27T04:43:22.048Z,99.99
2018-12-27T04:44:22.066Z,99.99
2018-12-27T04:45:22.089Z,99.99
2018-12-27T04:46:22.111Z,99.99
2018-12-27T04:47:22.135Z,99.99
2018-12-27T04:48:22.154Z,99.99
2018-12-27T04:49:22.179Z,99.99
2018-12-27T04:50:22.194Z,99.99
2018-12-27T04:51:22.217Z,99.99
2018-12-27T04:52:22.240Z,99.99
2018-12-27T04:53:22.260Z,99.99
2018-12-27T04:54:22.280Z,99.99
2018-12-27T04:55:22.304Z,99.99
2018-12-27T04:56:22.327Z,99.99
2018-12-27T04:57:22.344Z,99.99
2018-12-27T04:58:22.367Z,99.99
2018-12-27T04:59:22.388Z,99.99
2018-12-27T05:00:22.409Z,99.99
2018-12-27T05:01:22.433Z,99.99
2018-12-27T05:02:22.461Z,99.99
2018-12-27T05:03:22.474Z,99.99
2018-12-27T05:04:22.495Z,99.99
2018-12-27T05:05:22.519Z,99.99
2018-12-27T05:06:22.538Z,99.99
2018-12-27T05:07:22.563Z,99.99
2018-12-27T05:08:22.583Z,99.99
2018-12-27T05:09:22.601Z,99.99
2018-12-27T05:10:22.625Z,99.99
2018-12-27T05:11:22.644Z,99.99
2018-12-27T05:12:22.671Z,99.99
2018-12-27T05:13:22.689Z,99.99
2018-12-27T05:14:22.709Z,99.99
2018-12-27T05:15:22.733Z,99.99
2018-12-27T05:16:22.753Z,99.99
2018-12-27T05:17:22.776Z,99.99
2018-12-27T05:18:22.794Z,99.99
2018-12-27T05:19:22.815Z,99.99
2018-12-27T05:20:22.839Z,99.99
2018-12-27T05:21:22.858Z,99.99
2018-12-27T05:22:22.893Z,99.99
2018-12-27T05:23:22.945Z,99.99
2018-12-27T05:24:22.931Z,99.99
2018-12-27T05:25:22.944Z,99.99
2018-12-27T05:26:22.971Z,99.99
2018-12-27T05:27:22.991Z,99.99
2018-12-27T05:28:23.017Z,99.99
2018-12-27T05:29:23.034Z,99.99
2018-12-27T05:30:23.052Z,99.99
2018-12-27T05:31:23.076Z,99.99
2018-12-27T05:32:23.096Z,99.99
2018-12-27T05:33:23.116Z,99.99
2018-12-27T05:34:26.267Z,99.99
2018-12-27T05:35:23.164Z,99.99
2018-12-27T05:36:23.182Z,99.99
2018-12-27T05:37:23.202Z,99.99
2018-12-27T05:38:23.224Z,99.99
2018-12-27T05:39:23.248Z,99.99
2018-12-27T05:40:23.270Z,99.99
2018-12-27T05:41:23.289Z,99.99
2018-12-27T05:42:23.314Z,99.99
2018-12-27T05:43:23.336Z,99.99
2018-12-27T05:44:23.356Z,99.99
2018-12-27T05:45:23.377Z,99.99
2018-12-27T05:46:23.405Z,99.99
2018-12-27T05:47:23.420Z,99.99
2018-12-27T05:48:23.442Z,99.99
2018-12-27T05:49:23.469Z,99.99
2018-12-27T05:50:23.483Z,99.99
2018-12-27T05:51:23.513Z,99.99
2018-12-27T05:52:23.529Z,99.99
2018-12-27T05:53:23.551Z,99.99
2018-12-27T05:54:23.571Z,99.99
2018-12-27T05:55:23.604Z,99.99
2018-12-27T05:56:23.617Z,99.99
2018-12-27T05:57:23.635Z,99.99
2018-12-27T05:58:23.660Z,99.99
2018-12-27T05:59:23.679Z,99.99
2018-12-27T06:00:23.701Z,99.99
2018-12-27T06:01:23.724Z,99.99
2018-12-27T06:02:23.745Z,99.99
2018-12-27T06:03:23.771Z,99.99
2018-12-27T06:04:23.790Z,99.99
2018-12-27T06:05:23.812Z,99.99
2018-12-27T06:06:23.834Z,99.99
2018-12-27T06:07:23.855Z,99.99
2018-12-27T06:08:23.875Z,99.99
2018-12-27T06:09:23.895Z,99.99
2018-12-27T06:10:23.918Z,99.99
2018-12-27T06:11:23.938Z,99.99
2018-12-27T06:12:23.961Z,99.99
2018-12-27T06:13:23.986Z,99.99
2018-12-27T06:14:24.003Z,99.99
2018-12-27T06:15:24.028Z,99.99
2018-12-27T06:16:24.047Z,99.99
2018-12-27T06:17:24.075Z,99.99
2018-12-27T06:18:24.091Z,99.99
2018-12-27T06:19:24.113Z,99.99
2018-12-27T06:20:24.134Z,99.99
2018-12-27T06:21:24.155Z,99.99
2018-12-27T06:22:24.175Z,99.99
2018-12-27T06:23:24.198Z,99.99
2018-12-27T06:24:24.218Z,99.99
2018-12-27T06:25:24.241Z,99.99
2018-12-27T06:26:24.260Z,99.99
2018-12-27T06:27:24.282Z,99.99
2018-12-27T06:28:24.304Z,99.99
2018-12-27T06:29:24.324Z,99.99
2018-12-27T06:30:24.345Z,99.99
2018-12-27T06:31:24.367Z,99.99
2018-12-27T06:32:24.397Z,99.99
2018-12-27T06:33:24.412Z,99.99
2018-12-27T06:34:24.434Z,99.99
2018-12-27T06:35:24.452Z,99.99
2018-12-27T06:36:24.477Z,99.99
2018-12-27T06:37:24.494Z,99.99
2018-12-27T06:38:24.516Z,99.99
2018-12-27T06:39:24.542Z,99.99
2018-12-27T06:40:24.559Z,99.99
2018-12-27T06:41:24.584Z,99.99
2018-12-27T06:42:24.603Z,99.99
2018-12-27T06:43:24.624Z,99.99
2018-12-27T06:44:24.647Z,99.99
2018-12-27T06:45:24.665Z,99.99
2018-12-27T06:46:24.689Z,99.99
2018-12-27T06:47:24.708Z,99.99
2018-12-27T06:48:24.729Z,99.99
2018-12-27T06:49:24.752Z,99.99
2018-12-27T06:50:24.775Z,99.99
2018-12-27T06:51:24.793Z,99.99
2018-12-27T06:52:24.878Z,99.99
2018-12-27T06:53:24.835Z,99.99
2018-12-27T06:54:24.856Z,99.99
2018-12-27T06:55:24.882Z,99.99
2018-12-27T06:56:24.899Z,99.99
2018-12-27T06:57:24.919Z,99.99
2018-12-27T06:58:25.011Z,99.99
2018-12-27T06:59:24.964Z,99.99
2018-12-27T07:00:24.984Z,99.99
2018-12-27T07:01:25.006Z,99.99
2018-12-27T07:02:25.025Z,99.99
2018-12-27T07:03:25.050Z,99.99
2018-12-27T07:04:25.069Z,99.99
2018-12-27T07:05:25.091Z,99.99
2018-12-27T07:06:25.114Z,99.99
2018-12-27T07:07:25.132Z,99.99
2018-12-27T07:08:25.156Z,99.99
2018-12-27T07:09:25.179Z,99.99
2018-12-27T07:10:25.198Z,99.99
2018-12-27T07:11:25.217Z,99.99
2018-12-27T07:12:25.239Z,99.99
2018-12-27T07:13:25.262Z,99.99
2018-12-27T07:14:25.281Z,99.99
2018-12-27T07:15:25.305Z,99.99
2018-12-27T07:16:25.326Z,99.99
2018-12-27T07:17:25.347Z,99.99
2018-12-27T07:18:25.371Z,99.99
2018-12-27T07:19:25.388Z,99.99
2018-12-27T07:20:25.412Z,99.99
2018-12-27T07:21:25.433Z,99.99
2018-12-27T07:22:25.451Z,99.99
2018-12-27T07:23:25.476Z,99.99
2018-12-27T07:24:25.497Z,99.99
2018-12-27T07:25:25.515Z,99.99
2018-12-27T07:26:25.541Z,99.99
2018-12-27T07:27:25.561Z,99.99
2018-12-27T07:28:25.581Z,99.99
2018-12-27T07:29:25.619Z,99.99
2018-12-27T07:30:25.626Z,99.99
2018-12-27T07:31:25.644Z,99.99
2018-12-27T07:32:25.672Z,99.99
2018-12-27T07:33:25.696Z,99.99
2018-12-27T07:34:25.719Z,99.99
2018-12-27T07:35:25.733Z,99.99
2018-12-27T07:36:25.754Z,99.99
2018-12-27T07:37:25.772Z,99.99
2018-12-27T07:38:25.794Z,99.99
2018-12-27T07:39:25.818Z,99.99
2018-12-27T07:40:25.839Z,99.99
2018-12-27T07:41:25.861Z,99.99
2018-12-27T07:42:25.916Z,99.99
2018-12-27T07:43:25.902Z,99.99
2018-12-27T07:44:25.926Z,99.99
2018-12-27T07:45:25.947Z,99.99
2018-12-27T07:46:25.967Z,99.99
2018-12-27T07:47:25.989Z,99.99
2018-12-27T07:48:26.012Z,99.99
2018-12-27T07:49:26.030Z,99.99
2018-12-27T07:50:26.051Z,99.99
2018-12-27T07:51:26.073Z,99.99
2018-12-27T07:52:26.095Z,99.99
2018-12-27T07:53:26.118Z,99.99
2018-12-27T07:54:26.137Z,99.99
2018-12-27T07:55:26.159Z,99.99
2018-12-27T07:56:26.181Z,99.99
2018-12-27T07:57:26.204Z,99.99
2018-12-27T07:58:26.227Z,99.99
2018-12-27T07:59:26.245Z,99.99
2018-12-27T08:00:26.267Z,99.99
2018-12-27T08:01:26.288Z,99.99
2018-12-27T08:02:26.310Z,99.99
2018-12-27T08:03:26.332Z,99.99
2018-12-27T08:04:26.356Z,99.99
2018-12-27T08:05:26.379Z,99.99
2018-12-27T08:06:26.395Z,99.99
2018-12-27T08:07:26.421Z,99.99
2018-12-27T08:08:26.441Z,99.99
2018-12-27T08:09:26.461Z,99.99
2018-12-27T08:10:26.484Z,99.99
2018-12-27T08:11:26.505Z,99.99
2018-12-27T08:12:26.527Z,99.99
2018-12-27T08:13:26.553Z,99.99
2018-12-27T08:14:26.573Z,99.99
2018-12-27T08:15:26.594Z,99.99
2018-12-27T08:16:26.616Z,99.99
2018-12-27T08:17:26.635Z,99.99
2018-12-27T08:18:26.656Z,99.99
2018-12-27T08:19:26.678Z,99.99
2018-12-27T08:20:26.701Z,99.99
2018-12-27T08:21:26.723Z,99.99
2018-12-27T08:22:26.745Z,99.99
2018-12-27T08:23:26.768Z,99.99
2018-12-27T08:24:26.790Z,99.99
2018-12-27T08:25:26.810Z,99.99
2018-12-27T08:26:26.832Z,99.99
2018-12-27T08:27:26.855Z,99.99
2018-12-27T08:28:26.879Z,99.99
2018-12-27T08:29:26.898Z,99.99
2018-12-27T08:30:26.923Z,99.99
2018-12-27T08:31:26.947Z,99.99
2018-12-27T08:32:26.966Z,99.99
2018-12-27T08:33:26.985Z,99.99
2018-12-27T08:34:27.008Z,99.99
2018-12-27T08:35:27.032Z,99.99
2018-12-27T08:36:27.053Z,99.99
2018-12-27T08:37:27.073Z,99.99
2018-12-27T08:38:27.097Z,99.99
2018-12-27T08:39:27.120Z,99.99
2018-12-27T08:40:27.208Z,99.99
2018-12-27T08:41:27.164Z,99.99
2018-12-27T08:42:27.186Z,99.99
2018-12-27T08:43:27.209Z,99.99
2018-12-27T08:44:27.231Z,99.99
2018-12-27T08:45:27.252Z,99.99
2018-12-27T08:46:27.271Z,99.99
2018-12-27T08:47:27.294Z,99.99
2018-12-27T08:48:27.319Z,99.99
2018-12-27T08:49:27.338Z,99.99
2018-12-27T08:50:27.360Z,99.99
2018-12-27T08:51:27.383Z,99.99
2018-12-27T08:52:27.407Z,99.99
2018-12-27T08:53:27.428Z,99.99
2018-12-27T08:54:27.451Z,99.99
2018-12-27T08:55:27.472Z,99.99
2018-12-27T08:56:27.496Z,99.99
2018-12-27T08:57:27.515Z,99.99
2018-12-27T08:58:27.540Z,99.99
2018-12-27T08:59:27.562Z,99.99
2018-12-27T09:00:27.582Z,99.99
2018-12-27T09:01:27.606Z,99.99
2018-12-27T09:02:27.628Z,99.99
2018-12-27T09:03:27.651Z,99.99
2018-12-27T09:04:27.673Z,99.99
2018-12-27T09:05:27.693Z,99.99
2018-12-27T09:06:27.717Z,99.99
2018-12-27T09:07:27.742Z,99.99
2018-12-27T09:08:27.764Z,99.99
2018-12-27T09:09:27.782Z,99.99
2018-12-27T09:10:27.803Z,99.99
2018-12-27T09:11:27.829Z,99.99
2018-12-27T09:12:27.852Z,99.99
2018-12-27T09:13:27.873Z,99.99
2018-12-27T09:14:27.893Z,99.99
2018-12-27T09:15:27.916Z,99.99
2018-12-27T09:16:27.941Z,99.99
2018-12-27T09:17:27.963Z,99.99
2018-12-27T09:18:27.984Z,99.99
2018-12-27T09:19:28.008Z,99.99
2018-12-27T09:20:28.032Z,99.99
2018-12-27T09:21:28.054Z,99.99
2018-12-27T09:22:28.074Z,99.99
2018-12-27T09:23:28.100Z,99.68
2018-12-27T09:24:28.123Z,99.21
2018-12-27T09:25:28.144Z,98.64
2018-12-27T09:26:28.170Z,98.07
2018-12-27T09:27:28.202Z,96.98
2018-12-27T09:28:28.217Z,96.22
2018-12-27T09:29:28.238Z,94.89
2018-12-27T09:30:28.263Z,93.75
2018-12-27T09:31:28.290Z,92.99
2018-12-27T09:32:28.313Z,93.65
2018-12-27T09:33:28.338Z,93.56
2018-12-27T09:34:28.359Z,93.18
2018-12-27T09:35:28.385Z,93.94
2018-12-27T09:36:28.409Z,93.84
2018-12-27T09:37:28.441Z,93.37
2018-12-27T09:38:28.462Z,92.99
2018-12-27T09:39:28.486Z,92.61
2018-12-27T09:40:28.512Z,92.99
2018-12-27T09:41:28.535Z,93.27
2018-12-27T09:42:28.561Z,93.94
2018-12-27T09:43:28.588Z,94.08
2018-12-27T09:44:28.615Z,95.31
2018-12-27T09:45:28.641Z,96.88
2018-12-27T09:46:28.668Z,99.54
2018-12-27T09:47:28.694Z,99.99
2018-12-27T09:48:28.717Z,99.99
2018-12-27T09:49:28.743Z,99.99
2018-12-27T09:50:28.772Z,99.99
2018-12-27T09:51:28.797Z,99.99
2018-12-27T09:52:28.823Z,99.99
2018-12-27T09:53:28.852Z,99.99
2018-12-27T09:54:28.874Z,99.99
2018-12-27T09:55:28.902Z,99.99
2018-12-27T09:56:28.927Z,99.99
2018-12-27T09:57:28.954Z,99.99
2018-12-27T09:58:28.979Z,99.99
2018-12-27T09:59:29.004Z,99.99
2018-12-27T10:00:29.031Z,99.99
2018-12-27T10:01:29.055Z,99.99
2018-12-27T10:02:29.081Z,99.99
2018-12-27T10:03:29.106Z,99.99
2018-12-27T10:04:29.131Z,99.99
2018-12-27T10:05:33.755Z,99.99
2018-12-27T10:06:29.178Z,99.99
2018-12-27T10:07:29.213Z,99.99
2018-12-27T10:08:29.227Z,99.99
2018-12-27T10:09:29.252Z,99.99
2018-12-27T10:10:29.279Z,99.99
2018-12-27T10:11:29.302Z,99.99
2018-12-27T10:12:29.325Z,99.99
2018-12-27T10:13:29.349Z,99.99
2018-12-27T10:14:29.377Z,99.99
2018-12-27T10:15:30.118Z,99.99
2018-12-27T10:16:29.425Z,99.99
2018-12-27T10:17:29.447Z,99.99
2018-12-27T10:18:29.469Z,99.99
2018-12-27T10:19:29.493Z,99.99
2018-12-27T10:20:29.521Z,99.99
2018-12-27T10:21:29.542Z,99.99
2018-12-27T10:22:29.566Z,99.99
2018-12-27T10:23:29.598Z,99.99
2018-12-27T10:24:29.613Z,99.99
2018-12-27T10:25:29.635Z,99.99
2018-12-27T10:26:29.661Z,99.99
2018-12-27T10:27:29.684Z,99.99
2018-12-27T10:28:29.706Z,99.99
2018-12-27T10:29:29.731Z,99.99
2018-12-27T10:30:29.754Z,99.58
2018-12-27T10:31:29.779Z,99.96
2018-12-27T10:32:29.801Z,99.11
2018-12-27T10:33:29.824Z,98.63
2018-12-27T10:34:29.846Z,98.35
2018-12-27T10:35:29.873Z,98.07
2018-12-27T10:36:29.895Z,98.16
2018-12-27T10:37:29.916Z,97.59
2018-12-27T10:38:29.942Z,97.50
2018-12-27T10:39:29.967Z,96.92
2018-12-27T10:40:29.989Z,95.98
2018-12-27T10:41:30.010Z,96.45
2018-12-27T10:42:30.034Z,96.31
2018-12-27T10:43:30.058Z,96.45
2018-12-27T10:44:30.081Z,95.31
2018-12-27T10:45:30.106Z,95.69
2018-12-27T10:46:30.127Z,96.36
2018-12-27T10:47:30.153Z,96.26
2018-12-27T10:48:30.176Z,95.88
2018-12-27T10:49:30.200Z,95.69
2018-12-27T10:50:30.221Z,95.60
2018-12-27T10:51:30.247Z,94.84
2018-12-27T10:52:30.277Z,94.98
2018-12-27T10:53:30.296Z,95.36
2018-12-27T10:54:30.316Z,94.23
2018-12-27T10:55:30.339Z,94.32
2018-12-27T10:56:30.362Z,94.51
2018-12-27T10:57:30.385Z,94.23
2018-12-27T10:58:30.408Z,94.03
2018-12-27T10:59:30.434Z,94.60
2018-12-27T11:00:30.456Z,94.70
2018-12-27T11:01:30.479Z,93.75
2018-12-27T11:02:30.505Z,93.08
2018-12-27T11:03:30.911Z,93.08
2018-12-27T11:04:30.554Z,91.85
2018-12-27T11:05:30.575Z,91.56
2018-12-27T11:06:30.598Z,91.75
2018-12-27T11:07:30.683Z,92.23
2018-12-27T11:08:30.648Z,91.56
2018-12-27T11:09:30.670Z,91.38
2018-12-27T11:10:30.693Z,91.56
2018-12-27T11:11:30.717Z,91.00
2018-12-27T11:12:30.742Z,88.81
2018-12-27T11:13:30.765Z,89.67
2018-12-27T11:14:30.789Z,90.38
2018-12-27T11:15:30.815Z,90.00
2018-12-27T11:16:30.835Z,89.33
2018-12-27T11:17:30.860Z,89.05
2018-12-27T11:18:30.893Z,87.01
2018-12-27T11:19:30.906Z,85.78
2018-12-27T11:20:30.930Z,85.30
2018-12-27T11:21:30.952Z,85.59
2018-12-27T11:22:30.979Z,85.59
2018-12-27T11:23:31.003Z,85.02
2018-12-27T11:24:31.025Z,85.40
2018-12-27T11:25:31.048Z,85.30
2018-12-27T11:26:31.072Z,84.83
2018-12-27T11:27:31.098Z,84.55
2018-12-27T11:28:31.120Z,84.26
2018-12-27T11:29:31.143Z,85.21
2018-12-27T11:30:31.172Z,85.49
2018-12-27T11:31:31.193Z,85.97
2018-12-27T11:32:31.215Z,85.40
2018-12-27T11:33:31.238Z,85.68
2018-12-27T11:34:31.262Z,85.78
2018-12-27T11:35:31.288Z,86.35
2018-12-27T11:36:31.315Z,87.11
2018-12-27T11:37:31.333Z,87.30
2018-12-27T11:38:31.354Z,87.96
2018-12-27T11:39:31.380Z,87.96
2018-12-27T11:40:31.403Z,88.24
2018-12-27T11:41:31.424Z,88.62
2018-12-27T11:42:31.449Z,88.53
2018-12-27T11:43:31.473Z,88.15
2018-12-27T11:44:31.494Z,88.43
2018-12-27T11:45:31.517Z,89.29
2018-12-27T11:46:31.543Z,89.43
2018-12-27T11:47:31.566Z,90.38
2018-12-27T11:48:31.590Z,90.14
2018-12-27T11:49:31.611Z,89.58
2018-12-27T11:50:31.636Z,90.62
2018-12-27T11:51:31.657Z,90.14
2018-12-27T11:52:31.680Z,90.05
2018-12-27T11:53:31.702Z,90.33
2018-12-27T11:54:31.725Z,90.33
2018-12-27T11:55:31.753Z,90.71
2018-12-27T11:56:31.774Z,90.71
2018-12-27T11:57:31.797Z,90.43
2018-12-27T11:58:31.819Z,90.62
2018-12-27T11:59:31.843Z,89.67
2018-12-27T12:00:31.867Z,89.20
2018-12-27T12:01:31.889Z,88.62
2018-12-27T12:02:31.912Z,87.77
2018-12-27T12:03:31.934Z,88.15
2018-12-27T12:04:31.960Z,89.20
2018-12-27T12:05:31.982Z,88.72
2018-12-27T12:06:32.008Z,88.91
2018-12-27T12:07:32.026Z,88.15
2018-12-27T12:08:32.052Z,88.81
2018-12-27T12:09:32.075Z,89.10
2018-12-27T12:10:32.399Z,90.05
2018-12-27T12:11:32.122Z,90.19
2018-12-27T12:12:32.145Z,88.57
2018-12-27T12:13:32.368Z,87.05
2018-12-27T12:14:32.390Z,87.77
2018-12-27T12:15:32.412Z,87.82
2018-12-27T12:16:32.386Z,88.20
2018-12-27T12:17:32.411Z,88.76
2018-12-27T12:18:32.282Z,87.53
2018-12-27T12:19:32.406Z,87.24
2018-12-27T12:20:32.380Z,87.15
2018-12-27T12:21:32.405Z,87.15
2018-12-27T12:22:32.378Z,86.96
2018-12-27T12:23:32.405Z,87.05
2018-12-27T12:24:32.423Z,86.87
2018-12-27T12:25:32.448Z,87.15
2018-12-27T12:26:32.469Z,86.30
2018-12-27T12:27:32.499Z,85.91
2018-12-27T12:28:32.524Z,86.58
2018-12-27T12:29:32.542Z,86.30
2018-12-27T12:30:32.565Z,86.68
2018-12-27T12:31:32.590Z,86.11
2018-12-27T12:32:32.614Z,86.63
2018-12-27T12:33:32.637Z,86.30
2018-12-27T12:34:32.659Z,87.05
2018-12-27T12:35:32.682Z,87.34
2018-12-27T12:36:32.707Z,86.58
2018-12-27T12:37:32.728Z,86.96
2018-12-27T12:38:32.753Z,87.43
2018-12-27T12:39:32.780Z,87.62
2018-12-27T12:40:32.803Z,87.62
2018-12-27T12:41:32.826Z,87.24
2018-12-27T12:42:33.302Z,86.20
2018-12-27T12:43:32.875Z,86.07
2018-12-27T12:44:32.898Z,84.92
2018-12-27T12:45:32.925Z,85.97
2018-12-27T12:46:32.947Z,86.07
2018-12-27T12:47:32.967Z,86.82
2018-12-27T12:48:32.991Z,86.91
2018-12-27T12:49:33.018Z,86.72
2018-12-27T12:50:33.039Z,86.91
2018-12-27T12:51:33.061Z,86.07
2018-12-27T12:52:33.085Z,86.07